AirNav   Air Wisconsin pilot careers
 
 1021 users online  

AL32 Flying M Ranch Airport
Cedar Bluff, Alabama, USA

GOING TO CEDAR BLUFF?


FAA INFORMATION EFFECTIVE 11 OCTOBER 2018

Location

FAA Identifier: AL32
Lat/Long: 34-19-21.3200N / 085-38-37.3700W
34-19.355333N / 085-38.622833W
34.3225889 / -85.6437139
(estimated)
Elevation: 670 ft. / 204 m (estimated)
Variation: 03W (2000)
From city: 6 miles W of CEDAR BLUFF, AL
Time zone: UTC -5 (UTC -6 during Standard Time)
Zip code: 35973

Airport Operations

Airport use: Private use. Permission required prior to landing
Activation date: 10/2002
Control tower: no
ARTCC: ATLANTA CENTER
FSS: ANNISTON FLIGHT SERVICE STATION
Attendance: UNATNDD
Wind indicator: yes
Segmented circle: no

Airport Communications

WX AWOS-3PT at 4A9 (10 nm NW): 119.025 (256-845-5397)

Nearby radio navigation aids

VOR radial/distance  VOR name  Freq  Var
RMGr289/27.7ROME VORTAC115.4001E
GADr044/30.1GADSDEN VOR/DME112.3002E

 
NDB name  Hdg/Dist  Freq  Var  ID
FORT PAYNE177/12.042604WFTP ..-. - .--.
CALHOUN267/35.832305WOUK --- ..- -.-

Airport Services

Runway Information

Runway 4/22

Dimensions: 2600 x 75 ft. / 792 x 23 m
Surface: turf
Runway edge markings: RY 04/22 EDGES MARKED WITH 18 INCH DISKS PAINTED WHITE & FLUSH WITH GROUND, EVERY 100 FT.
RUNWAY 4  RUNWAY 22
Traffic pattern: leftleft
Displaced threshold: 481 ft.
RY 04 & 22 DSPLCD THLD MARKED WITH WHITE 5-GAL BUCKETS FILLED WITH SAND.
541 ft.
Obstructions: 30 ft. trees, 500 ft. from runway, 200 ft. right of centerline50 ft. tree, 996 ft. from runway
ADDL OBSTN 30 FT PLINE 1000 FT FROM THLD.

Airport Ownership and Management from official FAA records

Ownership: Privately-owned
PRIOR PERMISSION REQUIRED PRIOR TO LANDING
Owner: WILLIAM R. DURHAM
3996 CANTON HWY
CUMMING, GA 30040
Phone (404) 626-0822
Manager: WILLIAM R. DURHAM
3996 CANTON HWY
CUMMING, GA 30040
Phone (404) 626-0822

Airport Operational Statistics

Aircraft based on the field: 4
Single engine airplanes: 3
Ultralights: 1
    

Instrument Procedures

There are no published instrument procedures at AL32.

Some nearby airports with instrument procedures:

4A9 - Isbell Field Airport (10 nm NW)
KPYP - Centre-Piedmont-Cherokee County Regional Airport (14 nm S)
KRMG - Richard B. Russell Regional Airport - J.H. Towers Field (24 nm E)
9A5 - Barwick Lafayette Airport (28 nm NE)
4A6 - Scottsboro Municipal Airport-Word Field (28 nm NW)
 
Loc | Ops | Rwys | IFR | FBO | Links
Com | Nav | Svcs | Stats | Notes


 
Area around AL32 (Flying M Ranch Airport)
 
Road maps at: MapQuest Bing Google
 
Aerial photo
WARNING: Photo may not be current or correct
Aerial photo of AL32 (Flying M Ranch Airport)
Photo taken 04-Oct-2008

Do you have a better or more recent aerial photo of Flying M Ranch Airport that you would like to share? If so, please send us your photo.

 
Sectional chart

 
Airport distance calculator
Flying to Flying M Ranch Airport? Find the distance to fly.

From to AL32

Sunrise and sunset
Times for 19-Oct-2018
 Local
(UTC-5)
 Zulu
(UTC)
Morning civil twilight06:2711:27
Sunrise06:5211:52
Sunset18:0323:03
Evening civil twilight18:2823:28

Current date and time
Zulu (UTC)  19-Oct-2018 23:03:24
Local (UTC-5)  19-Oct-2018 18:03:24
 
METAR
K4A9 
10nm NW 
192255Z AUTO 00000KT 10SM CLR 20/14 A3013 RMK AO2
TAF
KANB 
46nm S 
191739Z 1918/2018 VRB04KT P6SM BKN025 FM191830 19006KT P6SM BKN045 BKN150 FM200100 00000KT P6SM BKN250 FM201000 23004KT P6SM OVC050 FM201300 27004KT 6SM -SHRA BR OVC015
KCHA 
48nm NE 
191725Z 1918/2018 VRB02KT P6SM SCT250 FM200600 21003KT P6SM OVC035 FM200900 31003KT P6SM -SHRA SCT015 OVC030 FM201300 25006KT 4SM -RA BR BKN015 OVC030 FM201600 31006KT P6SM BKN015
KASN 
50nm SW 
191739Z 1918/2018 VRB04KT P6SM BKN025 FM191830 19006KT P6SM BKN045 BKN150 FM200100 00000KT P6SM BKN250 FM201000 23004KT P6SM OVC050 FM201300 27004KT 6SM -SHRA BR OVC015
NOTAMs
Click for the latest NOTAMs
NOTAMs are issued by the DoD/FAA and will open in a separate window not controlled by AirNav.

 

 
 

Would you like to see your business listed on this page?

 If your business provides an interesting product or service to pilots, flight crews, aircraft, or users of the Flying M Ranch Airport, you should consider listing it here.  To start the listing process, click on the button below
 
Add a business
 

Other Pages about Flying M Ranch Airport

Update a link
 
Copyright © AirNav, LLC. All rights reserved. Privacy Policy  Contact